createdAt,value
2019-02-23T06:45:38.788Z,75.50
2019-02-23T06:46:38.774Z,75.29
2019-02-23T06:47:38.742Z,75.40
2019-02-23T06:48:38.734Z,74.33
2019-02-23T06:49:38.721Z,74.46
2019-02-23T06:50:38.730Z,74.46
2019-02-23T06:51:38.721Z,74.98
2019-02-23T06:52:38.689Z,75.09
2019-02-23T06:53:38.702Z,74.67
2019-02-23T06:54:38.686Z,75.19
2019-02-23T06:55:38.658Z,74.67
2019-02-23T06:56:38.669Z,74.46
2019-02-23T06:57:38.641Z,75.40
2019-02-23T06:58:38.651Z,75.43
2019-02-23T06:59:38.620Z,75.22
2019-02-23T07:00:38.605Z,75.12
2019-02-23T07:01:38.620Z,75.74
2019-02-23T07:02:38.609Z,75.43
2019-02-23T07:03:38.574Z,76.15
2019-02-23T07:04:38.565Z,76.57
2019-02-23T07:05:38.561Z,76.67
2019-02-23T07:06:38.575Z,76.15
2019-02-23T07:07:38.548Z,75.84
2019-02-23T07:08:46.550Z,75.43
2019-02-23T07:09:38.514Z,75.22
2019-02-23T07:10:38.497Z,74.91
2019-02-23T07:11:38.510Z,75.43
2019-02-23T07:12:38.498Z,75.53
2019-02-23T07:13:38.467Z,75.02
2019-02-23T07:14:38.464Z,75.63
2019-02-23T07:15:38.445Z,75.22
2019-02-23T07:16:38.443Z,75.32
2019-02-23T07:17:38.455Z,75.63
2019-02-23T07:18:38.413Z,75.29
2019-02-23T07:19:38.411Z,75.40
2019-02-23T07:20:44.294Z,74.88
2019-02-23T07:21:39.384Z,75.32
2019-02-23T07:22:38.395Z,75.09
2019-02-23T07:23:38.360Z,74.26
2019-02-23T07:24:38.349Z,74.15
2019-02-23T07:25:38.342Z,74.26
2019-02-23T07:26:38.337Z,73.94
2019-02-23T07:27:38.432Z,73.64
2019-02-23T07:28:38.314Z,73.33
2019-02-23T07:29:38.297Z,73.74
2019-02-23T07:30:38.288Z,73.64
2019-02-23T07:31:38.276Z,73.74
2019-02-23T07:32:38.286Z,73.74
2019-02-23T07:33:38.262Z,73.43
2019-02-23T07:34:38.256Z,72.81
2019-02-23T07:35:38.318Z,73.22
2019-02-23T07:36:38.224Z,73.02
2019-02-23T07:37:38.255Z,72.71
2019-02-23T07:38:38.212Z,72.98
2019-02-23T07:39:38.202Z,72.57
2019-02-23T07:40:38.182Z,72.16
2019-02-23T07:41:38.179Z,72.26
2019-02-23T07:42:38.191Z,72.05
2019-02-23T07:43:38.152Z,71.64
2019-02-23T07:44:38.145Z,72.36
2019-02-23T07:45:38.141Z,72.16
2019-02-23T07:46:38.120Z,72.26
2019-02-23T07:47:38.132Z,71.53
2019-02-23T07:48:38.099Z,71.33
2019-02-23T07:49:38.110Z,71.43
2019-02-23T07:50:38.079Z,71.33
2019-02-23T07:51:38.070Z,71.22
2019-02-23T07:52:38.078Z,71.61
2019-02-23T07:53:38.048Z,71.40
2019-02-23T07:54:38.043Z,70.98
2019-02-23T07:55:38.025Z,70.78
2019-02-23T07:56:38.017Z,71.16
2019-02-23T07:57:38.045Z,70.78
2019-02-23T07:58:37.994Z,69.74
2019-02-23T07:59:37.984Z,69.71
2019-02-23T08:00:37.985Z,69.71
2019-02-23T08:01:37.963Z,70.33
2019-02-23T08:02:37.977Z,69.92
2019-02-23T08:03:37.948Z,69.30
2019-02-23T08:04:37.931Z,70.43
2019-02-23T08:05:37.923Z,69.51
2019-02-23T08:06:37.913Z,69.92
2019-02-23T08:07:39.788Z,69.68
2019-02-23T08:08:37.890Z,69.17
2019-02-23T08:09:37.885Z,68.24
2019-02-23T08:10:37.871Z,68.34
2019-02-23T08:11:37.860Z,68.44
2019-02-23T08:12:37.877Z,68.24
2019-02-23T08:13:37.847Z,68.13
2019-02-23T08:14:37.832Z,68.10
2019-02-23T08:15:37.835Z,67.90
2019-02-23T08:16:37.807Z,68.93
2019-02-23T08:17:37.819Z,68.51
2019-02-23T08:18:37.788Z,68.48
2019-02-23T08:19:37.784Z,67.69
2019-02-23T08:20:37.770Z,67.48
2019-02-23T08:21:37.760Z,66.73
2019-02-23T08:22:37.804Z,67.38
2019-02-23T08:23:37.740Z,67.45
2019-02-23T08:24:37.771Z,67.03
2019-02-23T08:25:37.718Z,66.31
2019-02-23T08:26:37.707Z,66.63
2019-02-23T08:27:37.724Z,67.66
2019-02-23T08:28:37.685Z,66.63
2019-02-23T08:29:37.675Z,66.08
2019-02-23T08:30:37.701Z,65.77
2019-02-23T08:31:37.655Z,65.05
2019-02-23T08:32:37.673Z,65.46
2019-02-23T08:33:37.698Z,65.77
2019-02-23T08:34:37.623Z,65.36
2019-02-23T08:35:37.619Z,64.50
2019-02-23T08:36:37.604Z,65.33
2019-02-23T08:37:37.650Z,65.02
2019-02-23T08:38:37.581Z,64.27
2019-02-23T08:39:37.584Z,63.54
2019-02-23T08:40:37.562Z,63.72
2019-02-23T08:41:37.547Z,63.21
2019-02-23T08:42:37.587Z,63.00
2019-02-23T08:43:37.531Z,63.07
2019-02-23T08:44:37.524Z,62.84
2019-02-23T08:45:37.517Z,62.15
2019-02-23T08:46:37.523Z,62.02
2019-02-23T08:47:37.537Z,62.02
2019-02-23T08:48:37.476Z,61.40
2019-02-23T08:49:37.467Z,61.51
2019-02-23T08:50:37.452Z,61.09
2019-02-23T08:51:37.441Z,60.89
2019-02-23T08:52:48.191Z,60.86
2019-02-23T08:53:38.425Z,60.96
2019-02-23T08:54:37.413Z,60.31
2019-02-23T08:55:37.416Z,60.21
2019-02-23T08:56:37.392Z,59.98
2019-02-23T08:57:37.441Z,59.57
2019-02-23T08:58:37.365Z,58.51
2019-02-23T08:59:37.355Z,58.11
2019-02-23T09:00:37.347Z,58.31
2019-02-23T09:01:37.386Z,58.51
2019-02-23T09:02:37.348Z,58.51
2019-02-23T09:03:37.315Z,58.51
2019-02-23T09:04:37.300Z,58.11
2019-02-23T09:05:37.289Z,58.00
2019-02-23T09:06:37.282Z,58.00
2019-02-23T09:07:37.291Z,58.07
2019-02-23T09:08:37.264Z,57.70
2019-02-23T09:09:37.246Z,58.18
2019-02-23T09:10:37.284Z,57.77
2019-02-23T09:11:37.224Z,57.54
2019-02-23T09:12:37.256Z,57.33
2019-02-23T09:13:37.211Z,56.41
2019-02-23T09:14:37.261Z,56.20
2019-02-23T09:15:37.179Z,56.41
2019-02-23T09:16:37.167Z,56.62
2019-02-23T09:17:37.160Z,56.34
2019-02-23T09:18:37.200Z,56.41
2019-02-23T09:19:37.185Z,55.66
2019-02-23T09:20:37.177Z,55.98
2019-02-23T09:21:37.115Z,55.64
2019-02-23T09:22:37.105Z,54.79
2019-02-23T09:23:37.113Z,55.00
2019-02-23T09:24:37.078Z,55.05
2019-02-23T09:25:37.065Z,54.31
2019-02-23T09:26:37.057Z,52.85
2019-02-23T09:27:37.056Z,52.52
2019-02-23T09:28:37.085Z,52.83
2019-02-23T09:29:37.021Z,51.91
2019-02-23T09:30:37.011Z,52.01
2019-02-23T09:31:37.007Z,52.39
2019-02-23T09:32:36.987Z,51.84
2019-02-23T09:33:36.998Z,50.59
2019-02-23T09:34:36.964Z,49.85
2019-02-23T09:35:36.957Z,48.63
2019-02-23T09:36:36.960Z,48.96
2019-02-23T09:37:36.933Z,48.83
2019-02-23T09:38:36.965Z,48.63
2019-02-23T09:39:36.914Z,47.99
2019-02-23T09:40:36.899Z,48.60
2019-02-23T09:41:36.912Z,48.60
2019-02-23T09:42:36.919Z,48.40
2019-02-23T09:43:36.894Z,48.02
2019-02-23T09:44:36.857Z,48.50
2019-02-23T09:45:36.845Z,47.97
2019-02-23T09:46:36.839Z,47.97
2019-02-23T09:47:36.889Z,46.91
2019-02-23T09:48:36.836Z,46.37
2019-02-23T09:49:36.855Z,46.28
2019-02-23T09:50:36.791Z,46.58
2019-02-23T09:51:36.781Z,45.84
2019-02-23T09:52:36.771Z,45.70
2019-02-23T09:53:36.798Z,43.98
2019-02-23T09:54:36.790Z,44.40
2019-02-23T09:55:36.776Z,45.11
2019-02-23T09:56:36.731Z,44.38
2019-02-23T09:57:36.785Z,44.36
2019-02-23T09:58:36.729Z,43.61
2019-02-23T09:59:36.702Z,43.47
2019-02-23T10:00:36.696Z,41.83
2019-02-23T10:01:36.705Z,41.80
2019-02-23T10:02:36.661Z,41.02
2019-02-23T10:03:36.679Z,41.83
2019-02-23T10:04:36.638Z,41.71
2019-02-23T10:05:38.216Z,41.22
2019-02-23T10:06:36.658Z,41.86
2019-02-23T10:07:36.623Z,42.92
2019-02-23T10:08:36.624Z,43.18
2019-02-23T10:09:36.634Z,42.46
2019-02-23T10:10:36.573Z,41.63
2019-02-23T10:11:36.570Z,41.91
2019-02-23T10:12:36.553Z,39.88
2019-02-23T10:13:36.570Z,41.44
2019-02-23T10:14:36.545Z,41.93
2019-02-23T10:15:36.521Z,42.31
2019-02-23T10:16:36.510Z,41.49
2019-02-23T10:17:36.534Z,41.26
2019-02-23T10:18:36.633Z,41.49
2019-02-23T10:19:36.476Z,41.14
2019-02-23T10:20:36.475Z,39.44
2019-02-23T10:21:36.456Z,39.86
2019-02-23T10:22:36.472Z,40.29
2019-02-23T10:23:36.439Z,41.20
2019-02-23T10:24:36.453Z,41.20
2019-02-23T10:25:36.412Z,40.05
2019-02-23T10:26:36.399Z,39.62
2019-02-23T10:27:36.393Z,40.15
2019-02-23T10:28:36.378Z,39.98
2019-02-23T10:29:36.390Z,40.41
2019-02-23T10:30:36.425Z,41.85
2019-02-23T10:31:36.418Z,41.30
2019-02-23T10:32:36.349Z,41.32
2019-02-23T10:33:41.383Z,40.25
2019-02-23T10:34:37.340Z,39.95
2019-02-23T10:35:36.359Z,40.27
2019-02-23T10:36:36.302Z,40.17
2019-02-23T10:37:36.283Z,40.17
2019-02-23T10:38:36.274Z,39.46
2019-02-23T10:39:36.303Z,40.20
2019-02-23T10:40:36.282Z,40.39
2019-02-23T10:41:36.240Z,40.69
2019-02-23T10:42:36.231Z,40.29
2019-02-23T10:43:36.218Z,39.90
2019-02-23T10:44:36.258Z,39.98
2019-02-23T10:45:36.200Z,40.23
2019-02-23T10:46:36.201Z,39.93
2019-02-23T10:47:36.176Z,38.31
2019-02-23T10:48:36.177Z,39.64
2019-02-23T10:49:36.185Z,39.26
2019-02-23T10:50:36.143Z,40.25
2019-02-23T10:51:36.133Z,39.44
2019-02-23T10:52:36.179Z,40.05
2019-02-23T10:53:36.112Z,39.46
2019-02-23T10:54:36.139Z,39.02
2019-02-23T10:55:36.089Z,39.10
2019-02-23T10:56:36.082Z,38.19
2019-02-23T10:57:36.068Z,38.29
2019-02-23T10:58:36.058Z,38.31
2019-02-23T10:59:36.067Z,38.29
2019-02-23T11:00:36.050Z,38.90
2019-02-23T11:01:36.024Z,38.57
2019-02-23T11:02:36.018Z,37.55
2019-02-23T11:03:36.055Z,37.02
2019-02-23T11:04:36.014Z,37.04
2019-02-23T11:05:36.002Z,37.87
2019-02-23T11:06:38.498Z,37.99
2019-02-23T11:07:35.958Z,37.57
2019-02-23T11:08:35.961Z,37.16
2019-02-23T11:09:35.934Z,37.66
2019-02-23T11:10:35.943Z,37.37
2019-02-23T11:11:35.961Z,37.43
2019-02-23T11:12:35.902Z,35.90
2019-02-23T11:13:35.897Z,36.08
2019-02-23T11:14:35.890Z,34.72
2019-02-23T11:15:35.890Z,35.45
2019-02-23T11:16:35.860Z,34.83
2019-02-23T11:17:35.857Z,34.84
2019-02-23T11:18:35.837Z,35.14
2019-02-23T11:19:35.825Z,35.55
2019-02-23T11:20:35.875Z,35.82
2019-02-23T11:21:35.804Z,34.76
2019-02-23T11:22:35.800Z,33.95
2019-02-23T11:23:43.810Z,33.12
2019-02-23T11:24:36.769Z,32.45
2019-02-23T11:25:35.779Z,33.17
2019-02-23T11:26:35.756Z,32.53
2019-02-23T11:27:35.737Z,32.85
2019-02-23T11:28:35.729Z,32.43
2019-02-23T11:29:35.723Z,33.05
2019-02-23T11:30:35.755Z,32.97
2019-02-23T11:31:35.751Z,33.37
2019-02-23T11:32:35.694Z,33.97
2019-02-23T11:33:35.673Z,35.21
2019-02-23T11:34:35.702Z,34.92
2019-02-23T11:35:35.676Z,35.13
2019-02-23T11:36:35.673Z,34.94
2019-02-23T11:37:35.667Z,34.72
2019-02-23T11:38:35.646Z,34.44
2019-02-23T11:39:35.655Z,33.95
2019-02-23T11:40:35.636Z,35.03
2019-02-23T11:41:35.664Z,34.56
2019-02-23T11:42:35.578Z,33.56
2019-02-23T11:43:35.578Z,33.59
2019-02-23T11:44:35.564Z,34.91
2019-02-23T11:45:35.953Z,34.91
2019-02-23T11:46:35.542Z,35.04
2019-02-23T11:47:35.527Z,35.35
2019-02-23T11:48:35.512Z,35.28
2019-02-23T11:49:35.542Z,35.21
2019-02-23T11:50:35.524Z,36.08
2019-02-23T11:51:35.483Z,37.74
2019-02-23T11:52:35.479Z,37.34
2019-02-23T11:53:35.470Z,38.07
2019-02-23T11:54:35.456Z,38.17
2019-02-23T11:55:35.457Z,37.05
2019-02-23T11:56:35.457Z,37.42
2019-02-23T11:57:35.417Z,37.20
2019-02-23T11:58:35.409Z,37.07
2019-02-23T11:59:35.917Z,35.92
2019-02-23T12:00:35.412Z,35.50
2019-02-23T12:01:35.381Z,35.08
2019-02-23T12:02:35.362Z,33.95
2019-02-23T12:03:35.351Z,35.44
2019-02-23T12:04:35.368Z,33.81
2019-02-23T12:05:35.350Z,33.81
2019-02-23T12:06:35.319Z,33.22
2019-02-23T12:07:35.319Z,32.60
2019-02-23T12:08:35.296Z,32.62
2019-02-23T12:09:35.289Z,33.24
2019-02-23T12:10:35.302Z,32.90
2019-02-23T12:11:35.271Z,32.05
2019-02-23T12:12:35.255Z,32.05
2019-02-23T12:13:35.247Z,31.85
2019-02-23T12:14:35.255Z,31.73
2019-02-23T12:15:35.250Z,31.65
2019-02-23T12:16:35.212Z,32.05
2019-02-23T12:17:35.210Z,31.75
2019-02-23T12:18:35.193Z,32.44
2019-02-23T12:19:35.178Z,31.85
2019-02-23T12:20:35.203Z,31.95
2019-02-23T12:21:35.279Z,32.14
2019-02-23T12:22:35.150Z,31.65
2019-02-23T12:23:35.149Z,30.94
2019-02-23T12:24:35.127Z,31.98
2019-02-23T12:25:35.159Z,31.90
2019-02-23T12:26:35.103Z,32.10
2019-02-23T12:27:35.097Z,31.20
2019-02-23T12:28:35.099Z,31.09
2019-02-23T12:29:35.090Z,31.06
2019-02-23T12:30:35.185Z,30.55
2019-02-23T12:31:35.097Z,31.20
2019-02-23T12:32:35.052Z,32.01
2019-02-23T12:33:35.031Z,32.52
2019-02-23T12:34:35.041Z,31.90
2019-02-23T12:35:35.030Z,31.90
2019-02-23T12:36:35.002Z,31.70
2019-02-23T12:37:35.005Z,31.27
2019-02-23T12:38:34.975Z,31.27
2019-02-23T12:39:35.979Z,30.48
2019-02-23T12:40:34.975Z,29.69
2019-02-23T12:41:34.985Z,29.98
2019-02-23T12:42:34.932Z,30.11
2019-02-23T12:43:34.948Z,31.35
2019-02-23T12:44:34.911Z,31.41
2019-02-23T12:45:34.955Z,32.99
2019-02-23T12:46:34.890Z,34.44
2019-02-23T12:47:34.899Z,33.95
2019-02-23T12:48:34.868Z,34.77
2019-02-23T12:49:34.856Z,34.99
2019-02-23T12:50:34.851Z,35.70
2019-02-23T12:51:34.860Z,35.19
2019-02-23T12:52:34.843Z,35.48
2019-02-23T12:53:34.820Z,34.38
2019-02-23T12:54:34.801Z,35.27
2019-02-23T12:55:34.806Z,35.09
2019-02-23T12:56:34.803Z,36.02
2019-02-23T12:57:34.773Z,34.51
2019-02-23T12:58:34.772Z,34.10
2019-02-23T12:59:34.757Z,35.03
2019-02-23T13:00:34.735Z,35.64
2019-02-23T13:01:34.824Z,35.03
2019-02-23T13:02:34.724Z,35.46
2019-02-23T13:03:34.713Z,35.36
2019-02-23T13:04:34.705Z,35.05
2019-02-23T13:05:34.705Z,35.86
2019-02-23T13:06:34.695Z,36.07
2019-02-23T13:07:34.660Z,35.97
2019-02-23T13:08:34.651Z,35.97
2019-02-23T13:09:34.639Z,36.07
2019-02-23T13:10:34.646Z,36.07
2019-02-23T13:11:34.655Z,36.40
2019-02-23T13:12:34.607Z,36.70
2019-02-23T13:13:34.599Z,37.21
2019-02-23T13:14:34.584Z,36.60
2019-02-23T13:15:34.578Z,37.60
2019-02-23T13:16:34.597Z,35.95
2019-02-23T13:17:34.575Z,36.38
2019-02-23T13:18:34.541Z,36.38
2019-02-23T13:19:34.531Z,35.56
2019-02-23T13:20:34.518Z,35.97
2019-02-23T13:21:34.529Z,35.36
2019-02-23T13:22:34.510Z,35.46
2019-02-23T13:23:34.503Z,35.47
2019-02-23T13:24:34.477Z,35.37
2019-02-23T13:25:34.463Z,35.88
2019-02-23T13:26:34.488Z,36.19
2019-02-23T13:27:34.448Z,36.29
2019-02-23T13:28:34.431Z,36.19
2019-02-23T13:29:34.421Z,36.08
2019-02-23T13:30:34.410Z,36.29
2019-02-23T13:31:34.417Z,36.00
2019-02-23T13:32:34.388Z,36.00
2019-02-23T13:33:34.395Z,36.82
2019-02-23T13:34:34.386Z,36.41
2019-02-23T13:35:34.356Z,37.23
2019-02-23T13:36:34.369Z,37.84
2019-02-23T13:37:34.349Z,37.84
2019-02-23T13:38:34.323Z,38.65
2019-02-23T13:39:34.317Z,38.76
2019-02-23T13:40:34.323Z,38.84
2019-02-23T13:41:34.309Z,38.64
2019-02-23T13:42:34.282Z,38.35
2019-02-23T13:43:34.276Z,38.96
2019-02-23T13:44:34.270Z,38.96
2019-02-23T13:45:34.247Z,38.35
2019-02-23T13:46:34.256Z,38.87
2019-02-23T13:47:34.225Z,38.76
2019-02-23T13:48:34.215Z,39.06
2019-02-23T13:49:34.203Z,39.57
2019-02-23T13:50:34.192Z,38.96
2019-02-23T13:51:34.205Z,38.55
2019-02-23T13:52:34.186Z,39.08
2019-02-23T13:53:34.161Z,38.98
2019-02-23T13:54:38.996Z,38.65
2019-02-23T13:55:35.163Z,38.98
2019-02-23T13:56:34.149Z,40.01
2019-02-23T13:57:34.118Z,40.12
2019-02-23T13:58:34.110Z,40.12
2019-02-23T13:59:34.095Z,40.42
2019-02-23T14:00:34.080Z,40.32
2019-02-23T14:01:34.103Z,40.42
2019-02-23T14:02:34.311Z,40.73
2019-02-23T14:03:36.516Z,40.83
2019-02-23T14:04:34.046Z,40.32
2019-02-23T14:05:34.029Z,40.53
2019-02-23T14:06:34.040Z,40.53
2019-02-23T14:07:34.007Z,40.22
2019-02-23T14:08:33.996Z,40.32
2019-02-23T14:09:33.996Z,40.73
2019-02-23T14:10:33.976Z,40.81
2019-02-23T14:11:33.982Z,40.51
2019-02-23T14:12:33.949Z,40.20
2019-02-23T14:13:33.947Z,40.71
2019-02-23T14:14:33.937Z,40.51
2019-02-23T14:15:33.917Z,40.10
2019-02-23T14:16:33.933Z,40.71
2019-02-23T14:17:33.893Z,40.32
2019-02-23T14:18:33.881Z,40.12
2019-02-23T14:19:33.889Z,40.53
2019-02-23T14:20:33.898Z,40.53
2019-02-23T14:21:34.000Z,40.61
2019-02-23T14:22:33.841Z,40.42
2019-02-23T14:23:33.827Z,40.42
2019-02-23T14:24:33.833Z,39.51
2019-02-23T14:25:33.956Z,40.01
2019-02-23T14:26:33.794Z,39.92
2019-02-23T14:27:33.807Z,40.73
2019-02-23T14:28:33.856Z,40.01
2019-02-23T14:29:33.764Z,40.22
2019-02-23T14:30:33.748Z,40.53
2019-02-23T14:31:33.741Z,40.22
2019-02-23T14:32:33.751Z,40.83
2019-02-23T14:33:33.728Z,40.63
2019-02-23T14:34:33.705Z,39.51
2019-02-23T14:35:33.694Z,40.12
2019-02-23T14:36:33.685Z,40.22
2019-02-23T14:37:33.693Z,40.24
2019-02-23T14:38:33.664Z,40.42
2019-02-23T14:39:33.653Z,40.53
2019-02-23T14:40:33.670Z,40.75
2019-02-23T14:41:33.668Z,40.73
2019-02-23T14:42:33.673Z,40.55
2019-02-23T14:43:33.608Z,40.53
2019-02-23T14:44:33.640Z,40.83
2019-02-23T14:45:33.585Z,40.65
2019-02-23T14:46:33.590Z,41.55
2019-02-23T14:47:33.671Z,40.63
2019-02-23T14:48:33.557Z,40.65
2019-02-23T14:49:33.538Z,40.63
2019-02-23T14:50:33.531Z,40.75
2019-02-23T14:51:33.580Z,40.85
2019-02-23T14:52:33.525Z,40.44
2019-02-23T14:53:33.497Z,41.36
2019-02-23T14:54:33.487Z,41.56
2019-02-23T14:55:33.533Z,41.77
2019-02-23T14:56:33.491Z,41.77
2019-02-23T14:57:33.478Z,41.67
2019-02-23T14:58:33.475Z,41.36
2019-02-23T14:59:33.426Z,41.56
2019-02-23T15:00:33.412Z,41.67
2019-02-23T15:01:33.404Z,42.08
2019-02-23T15:02:33.416Z,41.88
2019-02-23T15:03:33.392Z,42.29
2019-02-23T15:04:33.368Z,42.08
2019-02-23T15:05:33.358Z,41.77
2019-02-23T15:06:33.347Z,41.18
2019-02-23T15:07:33.365Z,42.69
2019-02-23T15:08:33.323Z,41.56
2019-02-23T15:09:33.311Z,42.08
2019-02-23T15:10:33.309Z,41.49
2019-02-23T15:11:33.292Z,41.28
2019-02-23T15:12:33.302Z,42.10
2019-02-23T15:13:33.277Z,41.49
2019-02-23T15:14:33.258Z,41.59
2019-02-23T15:15:33.267Z,41.69
2019-02-23T15:16:33.236Z,41.69
2019-02-23T15:17:33.242Z,41.28
2019-02-23T15:18:33.221Z,41.28
2019-02-23T15:19:33.215Z,42.00
2019-02-23T15:20:33.193Z,41.08
2019-02-23T15:21:33.183Z,42.00
2019-02-23T15:22:33.187Z,42.50
2019-02-23T15:23:33.160Z,42.10
2019-02-23T15:24:33.205Z,42.30
2019-02-23T15:25:33.130Z,42.20
2019-02-23T15:26:33.130Z,42.10
2019-02-23T15:27:33.168Z,42.30
2019-02-23T15:28:37.702Z,42.10
2019-02-23T15:29:34.275Z,42.61
2019-02-23T15:30:33.088Z,42.10
2019-02-23T15:31:33.077Z,42.10
2019-02-23T15:32:33.080Z,41.18
2019-02-23T15:33:33.044Z,41.81
2019-02-23T15:34:33.037Z,41.49
2019-02-23T15:35:33.022Z,41.38
2019-02-23T15:36:33.007Z,42.30
2019-02-23T15:37:33.022Z,42.10
2019-02-23T15:38:32.993Z,42.20
2019-02-23T15:39:33.003Z,42.02
2019-02-23T15:40:32.966Z,41.71
2019-02-23T15:41:32.960Z,42.12
2019-02-23T15:42:32.972Z,42.53
2019-02-23T15:43:32.978Z,42.03
2019-02-23T15:44:32.941Z,41.91
2019-02-23T15:45:32.946Z,42.02
2019-02-23T15:46:32.900Z,42.22
2019-02-23T15:47:32.953Z,42.55
2019-02-23T15:48:32.939Z,42.73
2019-02-23T15:49:32.866Z,42.34
2019-02-23T15:50:32.859Z,42.34
2019-02-23T15:51:32.863Z,42.34
2019-02-23T15:52:32.869Z,42.55
2019-02-23T15:53:32.837Z,42.44
2019-02-23T15:54:32.805Z,42.03
2019-02-23T15:55:32.792Z,42.55
2019-02-23T15:56:32.783Z,42.44
2019-02-23T15:57:32.818Z,42.14
2019-02-23T15:58:32.758Z,42.24
2019-02-23T15:59:32.747Z,43.06
2019-02-23T16:00:35.010Z,42.77
2019-02-23T16:01:32.729Z,42.44
2019-02-23T16:02:32.716Z,42.87
2019-02-23T16:03:32.729Z,43.49
2019-02-23T16:04:32.695Z,43.08
2019-02-23T16:05:32.679Z,43.18
2019-02-23T16:06:32.679Z,42.67
2019-02-23T16:07:32.656Z,43.08
2019-02-23T16:08:32.688Z,42.97
2019-02-23T16:09:32.636Z,43.38
2019-02-23T16:10:32.632Z,42.46
2019-02-23T16:11:32.616Z,42.57
2019-02-23T16:12:32.603Z,42.77
2019-02-23T16:13:32.613Z,43.08
2019-02-23T16:14:32.590Z,43.28
2019-02-23T16:15:32.570Z,43.40
2019-02-23T16:16:32.559Z,43.82
2019-02-23T16:17:32.546Z,43.18
2019-02-23T16:18:32.555Z,42.77
2019-02-23T16:19:32.542Z,42.18
2019-02-23T16:20:32.519Z,42.48
2019-02-23T16:21:32.511Z,42.87
2019-02-23T16:22:32.496Z,42.87
2019-02-23T16:23:35.571Z,42.77
2019-02-23T16:24:32.469Z,42.67
2019-02-23T16:25:38.357Z,42.16
2019-02-23T16:26:33.470Z,42.18
2019-02-23T16:27:32.441Z,42.87
2019-02-23T16:28:32.480Z,42.18
2019-02-23T16:29:32.433Z,42.28
2019-02-23T16:30:32.408Z,42.48
2019-02-23T16:31:32.394Z,42.79
2019-02-23T16:32:32.386Z,42.58
2019-02-23T16:33:32.399Z,43.20
2019-02-23T16:34:32.372Z,42.58
2019-02-23T16:35:32.353Z,42.58
2019-02-23T16:36:32.343Z,42.58
2019-02-23T16:37:32.331Z,43.30
2019-02-23T16:38:32.363Z,42.28
2019-02-23T16:39:32.322Z,42.81
2019-02-23T16:40:32.296Z,43.02
2019-02-23T16:41:32.282Z,42.61
2019-02-23T16:42:32.286Z,42.61
2019-02-23T16:43:32.291Z,43.22
2019-02-23T16:44:32.259Z,43.12
2019-02-23T16:45:32.241Z,42.61
2019-02-23T16:46:32.356Z,43.43
2019-02-23T16:47:32.216Z,43.53
2019-02-23T16:48:32.243Z,44.37
2019-02-23T16:49:32.195Z,43.96
2019-02-23T16:50:32.192Z,43.34
2019-02-23T16:51:32.180Z,43.75
2019-02-23T16:52:32.167Z,44.37
2019-02-23T16:53:32.185Z,43.24
2019-02-23T16:54:32.146Z,44.47
2019-02-23T16:55:32.134Z,44.57
2019-02-23T16:56:32.129Z,43.75
2019-02-23T16:57:32.124Z,43.44
2019-02-23T16:58:32.096Z,43.57
2019-02-23T16:59:32.112Z,43.57
2019-02-23T17:00:32.092Z,44.39
2019-02-23T17:01:32.071Z,43.55
2019-02-23T17:02:32.053Z,43.67
2019-02-23T17:03:32.107Z,44.29
2019-02-23T17:04:32.060Z,43.77
2019-02-23T17:05:32.038Z,44.47
2019-02-23T17:06:32.965Z,43.88
2019-02-23T17:07:31.998Z,43.77
2019-02-23T17:08:31.987Z,43.37
2019-02-23T17:09:32.009Z,43.37
2019-02-23T17:10:31.967Z,44.08
2019-02-23T17:11:31.955Z,43.88
2019-02-23T17:12:31.962Z,43.88
2019-02-23T17:13:31.936Z,44.08
2019-02-23T17:14:31.948Z,43.88
2019-02-23T17:15:31.917Z,43.88
2019-02-23T17:16:31.905Z,44.29
2019-02-23T17:17:31.894Z,43.88
2019-02-23T17:18:31.893Z,44.29
2019-02-23T17:19:31.889Z,44.31
2019-02-23T17:20:31.863Z,44.00
2019-02-23T17:21:31.846Z,43.67
2019-02-23T17:22:31.874Z,44.41
2019-02-23T17:23:31.831Z,44.31
2019-02-23T17:24:31.832Z,43.79
2019-02-23T17:25:31.809Z,43.90
2019-02-23T17:26:31.793Z,44.00
2019-02-23T17:27:36.157Z,43.79
2019-02-23T17:28:31.784Z,43.69
2019-02-23T17:29:31.781Z,44.20
2019-02-23T17:30:31.755Z,43.69
2019-02-23T17:31:31.750Z,44.71
2019-02-23T17:32:31.737Z,43.69
2019-02-23T17:33:31.719Z,43.90
2019-02-23T17:34:31.725Z,43.79
2019-02-23T17:35:31.693Z,44.23
2019-02-23T17:36:31.685Z,44.41
2019-02-23T17:37:31.679Z,43.81
2019-02-23T17:38:31.733Z,44.74
2019-02-23T17:39:31.679Z,44.02
2019-02-23T17:40:31.639Z,44.43
2019-02-23T17:41:31.634Z,44.43
2019-02-23T17:42:31.628Z,44.53
2019-02-23T17:43:31.609Z,44.53
2019-02-23T17:44:31.625Z,44.33
2019-02-23T17:45:31.585Z,44.94
2019-02-23T17:46:31.574Z,45.15
2019-02-23T17:47:31.582Z,45.25
2019-02-23T17:49:31.567Z,44.74
2019-02-23T17:50:31.557Z,44.65
2019-02-23T17:51:31.518Z,44.84
2019-02-23T17:52:31.522Z,45.15
2019-02-23T17:53:31.497Z,45.27
2019-02-23T17:54:31.509Z,44.96
2019-02-23T17:55:31.495Z,44.86
2019-02-23T17:56:31.475Z,45.68
2019-02-23T17:57:31.453Z,44.96
2019-02-23T17:58:31.444Z,44.76
2019-02-23T17:59:31.451Z,44.76
2019-02-23T18:00:31.435Z,45.07
2019-02-23T18:01:31.411Z,45.99
2019-02-23T18:02:31.406Z,45.89
2019-02-23T18:03:31.388Z,45.60
2019-02-23T18:04:31.398Z,46.01
2019-02-23T18:05:31.367Z,45.89
2019-02-23T18:06:31.373Z,45.78
2019-02-23T18:07:31.348Z,46.40
2019-02-23T18:08:31.334Z,45.60
2019-02-23T18:09:31.351Z,45.81
2019-02-23T18:10:31.314Z,46.42
2019-02-23T18:11:31.301Z,45.81
2019-02-23T18:12:31.310Z,46.11
2019-02-23T18:13:31.282Z,45.91
2019-02-23T18:14:31.291Z,45.91
2019-02-23T18:15:31.260Z,45.81
2019-02-23T18:16:31.250Z,46.01
2019-02-23T18:17:31.235Z,45.91
2019-02-23T18:18:31.230Z,45.70
2019-02-23T18:19:31.263Z,46.11
2019-02-23T18:20:31.203Z,47.04
2019-02-23T18:21:31.192Z,46.32
2019-02-23T18:22:31.190Z,46.53
2019-02-23T18:23:31.171Z,45.83
2019-02-23T18:24:31.191Z,46.32
2019-02-23T18:25:31.175Z,46.32
2019-02-23T18:26:31.139Z,46.34
2019-02-23T18:27:31.128Z,46.65
2019-02-23T18:28:31.123Z,46.11
2019-02-23T18:29:31.112Z,46.34
2019-02-23T18:30:31.128Z,45.91
2019-02-23T18:31:31.085Z,46.34
2019-02-23T18:32:31.074Z,46.96
2019-02-23T18:33:31.062Z,46.34
2019-02-23T18:34:31.934Z,46.65
2019-02-23T18:35:31.068Z,46.34
2019-02-23T18:36:31.051Z,46.34
2019-02-23T18:37:31.025Z,46.55
2019-02-23T18:38:31.011Z,46.36
2019-02-23T18:39:30.997Z,46.47
2019-02-23T18:40:31.006Z,46.57
2019-02-23T18:41:30.979Z,47.08
2019-02-23T18:42:30.987Z,46.47
2019-02-23T18:43:30.957Z,46.98
2019-02-23T18:44:30.945Z,46.67
2019-02-23T18:45:30.953Z,46.88
2019-02-23T18:46:30.923Z,46.67
2019-02-23T18:47:30.917Z,46.98
2019-02-23T18:48:30.912Z,46.90
2019-02-23T18:49:30.897Z,46.88
2019-02-23T18:50:30.899Z,47.19
2019-02-23T18:51:30.869Z,46.90
2019-02-23T18:52:30.859Z,46.28
2019-02-23T18:53:30.846Z,46.69
2019-02-23T18:54:30.835Z,46.90
2019-02-23T18:55:30.869Z,46.80
2019-02-23T18:56:30.814Z,46.80
2019-02-23T18:57:30.805Z,46.69
2019-02-23T18:58:30.796Z,47.20
2019-02-23T18:59:30.783Z,46.69
2019-02-23T19:00:30.792Z,47.00
2019-02-23T19:01:30.776Z,47.00
2019-02-23T19:02:30.753Z,47.20
2019-02-23T19:03:30.741Z,47.20
2019-02-23T19:04:30.730Z,46.90
2019-02-23T19:05:30.742Z,46.92
2019-02-23T19:06:30.707Z,47.00
2019-02-23T19:07:30.713Z,47.00
2019-02-23T19:08:30.686Z,47.00
2019-02-23T19:09:30.680Z,46.69
2019-02-23T19:10:30.685Z,46.90
2019-02-23T19:11:30.658Z,46.61
2019-02-23T19:12:30.647Z,47.02
2019-02-23T19:13:30.645Z,47.02
2019-02-23T19:14:30.630Z,46.69
2019-02-23T19:15:30.631Z,46.90
2019-02-23T19:16:30.627Z,46.51
2019-02-23T19:17:30.613Z,46.69
2019-02-23T19:18:30.583Z,46.92
2019-02-23T19:19:30.613Z,47.02
2019-02-23T19:20:30.588Z,47.13
2019-02-23T19:21:30.554Z,47.02
2019-02-23T19:22:30.544Z,47.23
2019-02-23T19:23:30.525Z,46.82
2019-02-23T19:24:30.516Z,46.92
2019-02-23T19:25:30.585Z,47.23
2019-02-23T19:26:38.049Z,46.92
2019-02-23T19:27:31.484Z,47.45
2019-02-23T19:28:30.492Z,47.13
2019-02-23T19:29:30.492Z,47.02
2019-02-23T19:30:30.493Z,47.15
2019-02-23T19:31:30.485Z,47.05
2019-02-23T19:32:30.432Z,47.05
2019-02-23T19:33:30.455Z,47.45
2019-02-23T19:34:30.411Z,47.56
2019-02-23T19:35:30.450Z,47.45
2019-02-23T19:36:30.422Z,47.56
2019-02-23T19:37:30.454Z,47.35
2019-02-23T19:38:30.377Z,47.45